sensor_id;sensor_type;location;lat;lon;timestamp;P1;durP1;ratioP1;P2;durP2;ratioP2
18142;SDS011;9197;50.930;3.140;2023-03-04T00:02:23;10.80;;;2.83;;
18142;SDS011;9197;50.930;3.140;2023-03-04T00:04:50;14.10;;;3.83;;
18142;SDS011;9197;50.930;3.140;2023-03-04T00:07:17;10.90;;;2.73;;
18142;SDS011;9197;50.930;3.140;2023-03-04T00:09:44;8.03;;;2.70;;
18142;SDS011;9197;50.930;3.140;2023-03-04T00:12:12;10.97;;;2.87;;
18142;SDS011;9197;50.930;3.140;2023-03-04T00:14:39;12.67;;;3.10;;
18142;SDS011;9197;50.930;3.140;2023-03-04T00:17:06;9.07;;;3.67;;
18142;SDS011;9197;50.930;3.140;2023-03-04T00:19:35;13.50;;;3.37;;
18142;SDS011;9197;50.930;3.140;2023-03-04T00:22:02;13.10;;;3.30;;
18142;SDS011;9197;50.930;3.140;2023-03-04T00:24:30;8.00;;;2.53;;
18142;SDS011;9197;50.930;3.140;2023-03-04T00:26:57;11.00;;;2.50;;
18142;SDS011;9197;50.930;3.140;2023-03-04T00:29:24;8.33;;;1.80;;
18142;SDS011;9197;50.930;3.140;2023-03-04T00:31:52;11.33;;;3.17;;
18142;SDS011;9197;50.930;3.140;2023-03-04T00:34:19;9.07;;;2.23;;
18142;SDS011;9197;50.930;3.140;2023-03-04T00:36:48;8.30;;;2.47;;
18142;SDS011;9197;50.930;3.140;2023-03-04T00:39:15;7.60;;;2.63;;
18142;SDS011;9197;50.930;3.140;2023-03-04T00:41:42;11.27;;;2.60;;
18142;SDS011;9197;50.930;3.140;2023-03-04T00:44:10;8.57;;;2.70;;
18142;SDS011;9197;50.930;3.140;2023-03-04T00:46:37;11.20;;;4.07;;
18142;SDS011;9197;50.930;3.140;2023-03-04T00:49:04;9.60;;;2.70;;
18142;SDS011;9197;50.930;3.140;2023-03-04T00:51:31;12.63;;;3.17;;
18142;SDS011;9197;50.930;3.140;2023-03-04T00:54:00;10.47;;;2.53;;
18142;SDS011;9197;50.930;3.140;2023-03-04T00:56:27;6.17;;;2.63;;
18142;SDS011;9197;50.930;3.140;2023-03-04T00:58:54;8.03;;;2.63;;
18142;SDS011;9197;50.930;3.140;2023-03-04T01:01:22;8.27;;;2.37;;
18142;SDS011;9197;50.930;3.140;2023-03-04T01:03:49;12.17;;;3.10;;
18142;SDS011;9197;50.930;3.140;2023-03-04T01:06:16;8.80;;;2.07;;
18142;SDS011;9197;50.930;3.140;2023-03-04T01:08:44;11.30;;;2.80;;
18142;SDS011;9197;50.930;3.140;2023-03-04T01:11:12;8.90;;;2.60;;
18142;SDS011;9197;50.930;3.140;2023-03-04T01:13:39;12.40;;;2.73;;
18142;SDS011;9197;50.930;3.140;2023-03-04T01:16:07;11.37;;;3.07;;
18142;SDS011;9197;50.930;3.140;2023-03-04T01:18:35;9.97;;;2.90;;
18142;SDS011;9197;50.930;3.140;2023-03-04T01:21:02;12.10;;;2.90;;
18142;SDS011;9197;50.930;3.140;2023-03-04T01:23:30;10.63;;;2.83;;
18142;SDS011;9197;50.930;3.140;2023-03-04T01:25:57;9.83;;;3.23;;
18142;SDS011;9197;50.930;3.140;2023-03-04T01:28:26;15.00;;;3.23;;
18142;SDS011;9197;50.930;3.140;2023-03-04T01:30:53;5.83;;;2.60;;
18142;SDS011;9197;50.930;3.140;2023-03-04T01:33:20;11.50;;;2.97;;
18142;SDS011;9197;50.930;3.140;2023-03-04T01:35:47;10.43;;;2.17;;
18142;SDS011;9197;50.930;3.140;2023-03-04T01:38:14;11.70;;;3.20;;
18142;SDS011;9197;50.930;3.140;2023-03-04T01:40:41;9.13;;;3.70;;
18142;SDS011;9197;50.930;3.140;2023-03-04T01:43:10;11.77;;;2.90;;
18142;SDS011;9197;50.930;3.140;2023-03-04T01:45:42;9.43;;;2.40;;
18142;SDS011;9197;50.930;3.140;2023-03-04T01:48:09;10.17;;;3.10;;
18142;SDS011;9197;50.930;3.140;2023-03-04T01:50:38;9.23;;;3.27;;
18142;SDS011;9197;50.930;3.140;2023-03-04T01:53:05;10.20;;;3.03;;
18142;SDS011;9197;50.930;3.140;2023-03-04T01:55:33;10.37;;;3.03;;
18142;SDS011;9197;50.930;3.140;2023-03-04T01:58:00;9.23;;;3.07;;
18142;SDS011;9197;50.930;3.140;2023-03-04T02:00:28;9.67;;;2.97;;
18142;SDS011;9197;50.930;3.140;2023-03-04T02:02:58;12.53;;;2.57;;
18142;SDS011;9197;50.930;3.140;2023-03-04T02:05:25;11.90;;;3.03;;
18142;SDS011;9197;50.930;3.140;2023-03-04T02:07:53;11.03;;;2.50;;
18142;SDS011;9197;50.930;3.140;2023-03-04T02:10:21;10.50;;;2.80;;
18142;SDS011;9197;50.930;3.140;2023-03-04T02:12:48;9.20;;;3.13;;
18142;SDS011;9197;50.930;3.140;2023-03-04T02:15:15;7.30;;;2.33;;
18142;SDS011;9197;50.930;3.140;2023-03-04T02:17:43;11.17;;;3.47;;
18142;SDS011;9197;50.930;3.140;2023-03-04T02:20:24;11.37;;;2.80;;
18142;SDS011;9197;50.930;3.140;2023-03-04T02:22:56;10.70;;;4.07;;
18142;SDS011;9197;50.930;3.140;2023-03-04T02:25:28;11.73;;;2.73;;
18142;SDS011;9197;50.930;3.140;2023-03-04T02:27:58;7.00;;;2.50;;
18142;SDS011;9197;50.930;3.140;2023-03-04T02:30:25;12.17;;;2.60;;
18142;SDS011;9197;50.930;3.140;2023-03-04T02:32:52;10.50;;;2.73;;
18142;SDS011;9197;50.930;3.140;2023-03-04T02:35:20;12.60;;;2.60;;
18142;SDS011;9197;50.930;3.140;2023-03-04T02:37:47;7.17;;;2.50;;
18142;SDS011;9197;50.930;3.140;2023-03-04T02:40:15;17.73;;;3.80;;
18142;SDS011;9197;50.930;3.140;2023-03-04T02:42:44;8.30;;;2.67;;
18142;SDS011;9197;50.930;3.140;2023-03-04T02:45:33;7.57;;;2.43;;
18142;SDS011;9197;50.930;3.140;2023-03-04T02:48:01;7.27;;;2.57;;
18142;SDS011;9197;50.930;3.140;2023-03-04T02:50:29;7.93;;;2.63;;
18142;SDS011;9197;50.930;3.140;2023-03-04T02:52:57;12.10;;;2.87;;
18142;SDS011;9197;50.930;3.140;2023-03-04T02:55:24;7.13;;;2.43;;
18142;SDS011;9197;50.930;3.140;2023-03-04T02:57:52;9.07;;;2.43;;
18142;SDS011;9197;50.930;3.140;2023-03-04T03:00:19;10.67;;;2.20;;
18142;SDS011;9197;50.930;3.140;2023-03-04T03:02:48;7.73;;;2.00;;
18142;SDS011;9197;50.930;3.140;2023-03-04T03:05:15;9.87;;;2.83;;
18142;SDS011;9197;50.930;3.140;2023-03-04T03:07:42;11.90;;;3.13;;
18142;SDS011;9197;50.930;3.140;2023-03-04T03:10:10;8.77;;;2.50;;
18142;SDS011;9197;50.930;3.140;2023-03-04T03:12:37;10.90;;;2.80;;
18142;SDS011;9197;50.930;3.140;2023-03-04T03:15:05;13.07;;;3.10;;
18142;SDS011;9197;50.930;3.140;2023-03-04T03:17:32;8.27;;;2.23;;
18142;SDS011;9197;50.930;3.140;2023-03-04T03:20:01;14.60;;;3.03;;
18142;SDS011;9197;50.930;3.140;2023-03-04T03:22:28;11.93;;;3.03;;
18142;SDS011;9197;50.930;3.140;2023-03-04T03:24:56;12.00;;;2.70;;
18142;SDS011;9197;50.930;3.140;2023-03-04T03:27:23;5.30;;;2.37;;
18142;SDS011;9197;50.930;3.140;2023-03-04T03:29:50;8.90;;;2.63;;
18142;SDS011;9197;50.930;3.140;2023-03-04T03:32:17;8.63;;;2.80;;
18142;SDS011;9197;50.930;3.140;2023-03-04T03:34:44;7.63;;;2.00;;
18142;SDS011;9197;50.930;3.140;2023-03-04T03:37:13;9.70;;;2.23;;
18142;SDS011;9197;50.930;3.140;2023-03-04T03:39:40;10.80;;;1.97;;
18142;SDS011;9197;50.930;3.140;2023-03-04T03:42:07;9.03;;;2.00;;
18142;SDS011;9197;50.930;3.140;2023-03-04T03:44:35;6.03;;;1.77;;
18142;SDS011;9197;50.930;3.140;2023-03-04T03:47:02;8.40;;;2.00;;
18142;SDS011;9197;50.930;3.140;2023-03-04T03:49:30;7.30;;;1.83;;
18142;SDS011;9197;50.930;3.140;2023-03-04T03:51:57;12.90;;;2.87;;
18142;SDS011;9197;50.930;3.140;2023-03-04T03:54:25;9.40;;;2.50;;
18142;SDS011;9197;50.930;3.140;2023-03-04T03:56:53;9.87;;;3.30;;
18142;SDS011;9197;50.930;3.140;2023-03-04T03:59:20;8.57;;;2.10;;
18142;SDS011;9197;50.930;3.140;2023-03-04T04:01:48;12.53;;;2.00;;
18142;SDS011;9197;50.930;3.140;2023-03-04T04:04:15;8.00;;;2.20;;
18142;SDS011;9197;50.930;3.140;2023-03-04T04:06:42;9.03;;;1.87;;
18142;SDS011;9197;50.930;3.140;2023-03-04T04:09:09;7.50;;;1.90;;
18142;SDS011;9197;50.930;3.140;2023-03-04T04:11:38;8.23;;;2.53;;
18142;SDS011;9197;50.930;3.140;2023-03-04T04:14:05;10.00;;;4.70;;
18142;SDS011;9197;50.930;3.140;2023-03-04T04:16:32;10.43;;;2.57;;
18142;SDS011;9197;50.930;3.140;2023-03-04T04:18:59;8.07;;;2.50;;
18142;SDS011;9197;50.930;3.140;2023-03-04T04:21:27;11.50;;;2.30;;
18142;SDS011;9197;50.930;3.140;2023-03-04T04:23:54;8.57;;;2.00;;
18142;SDS011;9197;50.930;3.140;2023-03-04T04:26:21;9.50;;;2.77;;
18142;SDS011;9197;50.930;3.140;2023-03-04T04:28:50;11.17;;;2.97;;
18142;SDS011;9197;50.930;3.140;2023-03-04T04:31:17;9.37;;;2.57;;
18142;SDS011;9197;50.930;3.140;2023-03-04T04:33:44;7.73;;;2.63;;
18142;SDS011;9197;50.930;3.140;2023-03-04T04:36:12;10.53;;;3.17;;
18142;SDS011;9197;50.930;3.140;2023-03-04T04:38:39;8.10;;;2.70;;
18142;SDS011;9197;50.930;3.140;2023-03-04T04:41:08;9.67;;;2.00;;
18142;SDS011;9197;50.930;3.140;2023-03-04T04:43:42;7.03;;;2.67;;
18142;SDS011;9197;50.930;3.140;2023-03-04T04:46:10;7.10;;;2.20;;
18142;SDS011;9197;50.930;3.140;2023-03-04T04:48:37;9.80;;;2.10;;
18142;SDS011;9197;50.930;3.140;2023-03-04T04:51:04;14.10;;;4.30;;
18142;SDS011;9197;50.930;3.140;2023-03-04T04:53:32;12.17;;;2.83;;
18142;SDS011;9197;50.930;3.140;2023-03-04T04:55:59;8.03;;;2.30;;
18142;SDS011;9197;50.930;3.140;2023-03-04T04:58:27;10.77;;;2.23;;
18142;SDS011;9197;50.930;3.140;2023-03-04T05:00:55;4.50;;;1.67;;
18142;SDS011;9197;50.930;3.140;2023-03-04T05:03:24;7.60;;;1.90;;
18142;SDS011;9197;50.930;3.140;2023-03-04T05:05:51;4.60;;;2.77;;
18142;SDS011;9197;50.930;3.140;2023-03-04T05:08:18;8.47;;;2.30;;
18142;SDS011;9197;50.930;3.140;2023-03-04T05:10:45;9.23;;;2.20;;
18142;SDS011;9197;50.930;3.140;2023-03-04T05:13:13;11.70;;;2.27;;
18142;SDS011;9197;50.930;3.140;2023-03-04T05:15:40;6.33;;;1.90;;
18142;SDS011;9197;50.930;3.140;2023-03-04T05:18:08;5.03;;;2.10;;
18142;SDS011;9197;50.930;3.140;2023-03-04T05:20:36;8.07;;;1.97;;
18142;SDS011;9197;50.930;3.140;2023-03-04T05:23:04;8.10;;;2.30;;
18142;SDS011;9197;50.930;3.140;2023-03-04T05:25:31;4.97;;;1.80;;
18142;SDS011;9197;50.930;3.140;2023-03-04T05:27:58;12.90;;;2.27;;
18142;SDS011;9197;50.930;3.140;2023-03-04T05:30:26;7.07;;;2.80;;
18142;SDS011;9197;50.930;3.140;2023-03-04T05:32:53;9.70;;;2.70;;
18142;SDS011;9197;50.930;3.140;2023-03-04T05:35:20;7.23;;;2.87;;
18142;SDS011;9197;50.930;3.140;2023-03-04T05:37:49;8.67;;;2.27;;
18142;SDS011;9197;50.930;3.140;2023-03-04T05:40:16;12.87;;;2.37;;
18142;SDS011;9197;50.930;3.140;2023-03-04T05:42:43;11.17;;;2.83;;
18142;SDS011;9197;50.930;3.140;2023-03-04T05:45:10;6.80;;;3.53;;
18142;SDS011;9197;50.930;3.140;2023-03-04T05:47:38;9.67;;;2.47;;
18142;SDS011;9197;50.930;3.140;2023-03-04T05:50:05;6.10;;;2.27;;
18142;SDS011;9197;50.930;3.140;2023-03-04T05:52:33;10.03;;;2.57;;
18142;SDS011;9197;50.930;3.140;2023-03-04T05:55:01;11.77;;;2.43;;
18142;SDS011;9197;50.930;3.140;2023-03-04T05:57:28;8.37;;;2.87;;
18142;SDS011;9197;50.930;3.140;2023-03-04T05:59:56;11.23;;;2.50;;
18142;SDS011;9197;50.930;3.140;2023-03-04T06:02:23;8.93;;;2.90;;
18142;SDS011;9197;50.930;3.140;2023-03-04T06:04:50;7.03;;;2.40;;
18142;SDS011;9197;50.930;3.140;2023-03-04T06:07:17;13.53;;;3.47;;
18142;SDS011;9197;50.930;3.140;2023-03-04T06:09:44;9.60;;;2.83;;
18142;SDS011;9197;50.930;3.140;2023-03-04T06:12:13;9.23;;;2.80;;
18142;SDS011;9197;50.930;3.140;2023-03-04T06:14:40;17.07;;;3.90;;
18142;SDS011;9197;50.930;3.140;2023-03-04T06:17:07;7.03;;;1.87;;
18142;SDS011;9197;50.930;3.140;2023-03-04T06:19:35;9.37;;;1.90;;
18142;SDS011;9197;50.930;3.140;2023-03-04T06:22:03;9.77;;;1.90;;
18142;SDS011;9197;50.930;3.140;2023-03-04T06:24:30;8.30;;;2.87;;
18142;SDS011;9197;50.930;3.140;2023-03-04T06:26:57;5.93;;;2.30;;
18142;SDS011;9197;50.930;3.140;2023-03-04T06:29:26;7.23;;;4.03;;
18142;SDS011;9197;50.930;3.140;2023-03-04T06:31:53;6.93;;;2.67;;
18142;SDS011;9197;50.930;3.140;2023-03-04T06:34:21;9.93;;;2.30;;
18142;SDS011;9197;50.930;3.140;2023-03-04T06:36:48;8.37;;;2.83;;
18142;SDS011;9197;50.930;3.140;2023-03-04T06:39:15;5.47;;;2.27;;
18142;SDS011;9197;50.930;3.140;2023-03-04T06:41:42;5.07;;;2.27;;
18142;SDS011;9197;50.930;3.140;2023-03-04T06:44:10;8.23;;;2.30;;
18142;SDS011;9197;50.930;3.140;2023-03-04T06:46:39;4.73;;;2.60;;
18142;SDS011;9197;50.930;3.140;2023-03-04T06:49:06;8.10;;;3.30;;
18142;SDS011;9197;50.930;3.140;2023-03-04T06:51:33;10.73;;;3.00;;
18142;SDS011;9197;50.930;3.140;2023-03-04T06:54:01;7.07;;;2.60;;
18142;SDS011;9197;50.930;3.140;2023-03-04T06:56:30;13.97;;;3.20;;
18142;SDS011;9197;50.930;3.140;2023-03-04T06:58:58;14.60;;;3.00;;
18142;SDS011;9197;50.930;3.140;2023-03-04T07:01:25;12.17;;;2.93;;
18142;SDS011;9197;50.930;3.140;2023-03-04T07:03:55;12.93;;;3.03;;
18142;SDS011;9197;50.930;3.140;2023-03-04T07:06:23;10.87;;;2.93;;
18142;SDS011;9197;50.930;3.140;2023-03-04T07:08:51;11.77;;;2.70;;
18142;SDS011;9197;50.930;3.140;2023-03-04T07:11:19;10.20;;;3.10;;
18142;SDS011;9197;50.930;3.140;2023-03-04T07:13:47;7.93;;;3.30;;
18142;SDS011;9197;50.930;3.140;2023-03-04T07:16:16;8.67;;;2.97;;
18142;SDS011;9197;50.930;3.140;2023-03-04T07:18:44;11.90;;;3.93;;
18142;SDS011;9197;50.930;3.140;2023-03-04T07:21:13;7.00;;;3.57;;
18142;SDS011;9197;50.930;3.140;2023-03-04T07:23:40;10.50;;;2.97;;
18142;SDS011;9197;50.930;3.140;2023-03-04T07:26:07;10.00;;;2.83;;
18142;SDS011;9197;50.930;3.140;2023-03-04T07:28:35;10.50;;;2.70;;
18142;SDS011;9197;50.930;3.140;2023-03-04T07:31:09;8.23;;;3.23;;
18142;SDS011;9197;50.930;3.140;2023-03-04T07:33:36;9.17;;;3.00;;
18142;SDS011;9197;50.930;3.140;2023-03-04T07:36:04;8.30;;;3.03;;
18142;SDS011;9197;50.930;3.140;2023-03-04T07:38:32;10.73;;;2.93;;
18142;SDS011;9197;50.930;3.140;2023-03-04T07:41:00;8.30;;;2.80;;
18142;SDS011;9197;50.930;3.140;2023-03-04T07:43:27;9.47;;;3.50;;
18142;SDS011;9197;50.930;3.140;2023-03-04T07:45:58;8.57;;;2.53;;
18142;SDS011;9197;50.930;3.140;2023-03-04T07:48:26;10.93;;;2.33;;
18142;SDS011;9197;50.930;3.140;2023-03-04T07:51:03;12.97;;;3.43;;
18142;SDS011;9197;50.930;3.140;2023-03-04T07:53:30;10.17;;;3.03;;
18142;SDS011;9197;50.930;3.140;2023-03-04T07:55:59;5.40;;;2.23;;
18142;SDS011;9197;50.930;3.140;2023-03-04T07:58:26;10.30;;;2.93;;
18142;SDS011;9197;50.930;3.140;2023-03-04T08:00:53;5.10;;;2.77;;
18142;SDS011;9197;50.930;3.140;2023-03-04T08:03:20;7.97;;;3.87;;
18142;SDS011;9197;50.930;3.140;2023-03-04T08:05:48;9.50;;;3.67;;
18142;SDS011;9197;50.930;3.140;2023-03-04T08:08:15;10.80;;;3.33;;
18142;SDS011;9197;50.930;3.140;2023-03-04T08:10:42;11.23;;;3.07;;
18142;SDS011;9197;50.930;3.140;2023-03-04T08:13:11;11.23;;;2.40;;
18142;SDS011;9197;50.930;3.140;2023-03-04T08:15:39;7.40;;;3.43;;
18142;SDS011;9197;50.930;3.140;2023-03-04T08:18:06;11.13;;;2.73;;
18142;SDS011;9197;50.930;3.140;2023-03-04T08:20:33;9.63;;;3.40;;
18142;SDS011;9197;50.930;3.140;2023-03-04T08:23:01;8.90;;;2.93;;
18142;SDS011;9197;50.930;3.140;2023-03-04T08:25:28;9.97;;;2.70;;
18142;SDS011;9197;50.930;3.140;2023-03-04T08:27:55;10.37;;;3.40;;
18142;SDS011;9197;50.930;3.140;2023-03-04T08:30:24;12.97;;;7.57;;
18142;SDS011;9197;50.930;3.140;2023-03-04T08:32:51;12.10;;;5.20;;
18142;SDS011;9197;50.930;3.140;2023-03-04T08:35:18;9.53;;;4.73;;
18142;SDS011;9197;50.930;3.140;2023-03-04T08:37:45;9.63;;;3.30;;
18142;SDS011;9197;50.930;3.140;2023-03-04T08:40:13;11.60;;;4.53;;
18142;SDS011;9197;50.930;3.140;2023-03-04T08:42:40;8.10;;;3.53;;
18142;SDS011;9197;50.930;3.140;2023-03-04T08:45:08;15.57;;;4.33;;
18142;SDS011;9197;50.930;3.140;2023-03-04T08:47:37;11.33;;;5.70;;
18142;SDS011;9197;50.930;3.140;2023-03-04T08:50:05;11.73;;;5.43;;
18142;SDS011;9197;50.930;3.140;2023-03-04T08:52:32;14.37;;;7.53;;
18142;SDS011;9197;50.930;3.140;2023-03-04T08:54:59;10.23;;;4.43;;
18142;SDS011;9197;50.930;3.140;2023-03-04T08:57:27;12.07;;;5.80;;
18142;SDS011;9197;50.930;3.140;2023-03-04T08:59:54;8.20;;;5.20;;
18142;SDS011;9197;50.930;3.140;2023-03-04T09:02:21;12.77;;;4.77;;
18142;SDS011;9197;50.930;3.140;2023-03-04T09:04:50;10.60;;;3.83;;
18142;SDS011;9197;50.930;3.140;2023-03-04T09:07:17;9.17;;;3.97;;
18142;SDS011;9197;50.930;3.140;2023-03-04T09:09:44;6.70;;;3.40;;
18142;SDS011;9197;50.930;3.140;2023-03-04T09:12:11;8.03;;;3.20;;
18142;SDS011;9197;50.930;3.140;2023-03-04T09:14:38;10.13;;;3.27;;
18142;SDS011;9197;50.930;3.140;2023-03-04T09:17:06;8.20;;;3.63;;
18142;SDS011;9197;50.930;3.140;2023-03-04T09:19:34;10.30;;;3.17;;
18142;SDS011;9197;50.930;3.140;2023-03-04T09:22:02;8.00;;;2.93;;
18142;SDS011;9197;50.930;3.140;2023-03-04T09:24:29;9.53;;;4.43;;
18142;SDS011;9197;50.930;3.140;2023-03-04T09:26:57;8.93;;;2.73;;
18142;SDS011;9197;50.930;3.140;2023-03-04T09:29:24;8.07;;;3.47;;
18142;SDS011;9197;50.930;3.140;2023-03-04T09:31:51;8.27;;;4.67;;
18142;SDS011;9197;50.930;3.140;2023-03-04T09:34:18;5.23;;;2.57;;
18142;SDS011;9197;50.930;3.140;2023-03-04T09:36:46;8.57;;;3.77;;
18142;SDS011;9197;50.930;3.140;2023-03-04T09:39:14;7.20;;;3.43;;
18142;SDS011;9197;50.930;3.140;2023-03-04T09:41:42;8.33;;;3.27;;
18142;SDS011;9197;50.930;3.140;2023-03-04T09:44:14;5.73;;;3.77;;
18142;SDS011;9197;50.930;3.140;2023-03-04T09:46:42;5.73;;;3.10;;
18142;SDS011;9197;50.930;3.140;2023-03-04T09:49:11;8.80;;;3.30;;
18142;SDS011;9197;50.930;3.140;2023-03-04T09:51:56;6.17;;;2.67;;
18142;SDS011;9197;50.930;3.140;2023-03-04T09:54:35;7.67;;;3.00;;
18142;SDS011;9197;50.930;3.140;2023-03-04T09:57:11;3.83;;;2.13;;
18142;SDS011;9197;50.930;3.140;2023-03-04T09:59:42;5.90;;;3.60;;
18142;SDS011;9197;50.930;3.140;2023-03-04T10:02:14;11.70;;;6.37;;
18142;SDS011;9197;50.930;3.140;2023-03-04T10:04:43;13.67;;;6.80;;
18142;SDS011;9197;50.930;3.140;2023-03-04T10:07:14;7.80;;;3.93;;
18142;SDS011;9197;50.930;3.140;2023-03-04T10:09:46;4.83;;;2.30;;
18142;SDS011;9197;50.930;3.140;2023-03-04T10:12:14;7.00;;;3.13;;
18142;SDS011;9197;50.930;3.140;2023-03-04T10:14:43;6.33;;;4.13;;
18142;SDS011;9197;50.930;3.140;2023-03-04T10:17:12;7.00;;;2.80;;
18142;SDS011;9197;50.930;3.140;2023-03-04T10:19:47;3.97;;;2.40;;
18142;SDS011;9197;50.930;3.140;2023-03-04T10:22:18;7.30;;;1.73;;
18142;SDS011;9197;50.930;3.140;2023-03-04T10:24:48;6.97;;;1.90;;
18142;SDS011;9197;50.930;3.140;2023-03-04T10:27:17;1.93;;;1.73;;
18142;SDS011;9197;50.930;3.140;2023-03-04T10:29:47;4.00;;;2.70;;
18142;SDS011;9197;50.930;3.140;2023-03-04T10:32:15;4.07;;;2.27;;
18142;SDS011;9197;50.930;3.140;2023-03-04T10:34:43;8.50;;;3.30;;
18142;SDS011;9197;50.930;3.140;2023-03-04T10:37:10;7.13;;;3.67;;
18142;SDS011;9197;50.930;3.140;2023-03-04T10:39:38;3.30;;;2.23;;
18142;SDS011;9197;50.930;3.140;2023-03-04T10:42:20;5.53;;;3.10;;
18142;SDS011;9197;50.930;3.140;2023-03-04T10:44:50;4.53;;;2.50;;
18142;SDS011;9197;50.930;3.140;2023-03-04T10:47:18;5.47;;;3.47;;
18142;SDS011;9197;50.930;3.140;2023-03-04T10:49:49;3.70;;;2.00;;
18142;SDS011;9197;50.930;3.140;2023-03-04T10:52:18;8.27;;;2.43;;
18142;SDS011;9197;50.930;3.140;2023-03-04T10:54:48;6.13;;;2.20;;
18142;SDS011;9197;50.930;3.140;2023-03-04T10:57:18;3.90;;;1.70;;
18142;SDS011;9197;50.930;3.140;2023-03-04T10:59:47;5.33;;;1.47;;
18142;SDS011;9197;50.930;3.140;2023-03-04T11:02:21;4.83;;;1.40;;
18142;SDS011;9197;50.930;3.140;2023-03-04T11:04:49;6.60;;;3.70;;
18142;SDS011;9197;50.930;3.140;2023-03-04T11:07:18;7.23;;;1.93;;
18142;SDS011;9197;50.930;3.140;2023-03-04T11:09:45;7.57;;;2.20;;
18142;SDS011;9197;50.930;3.140;2023-03-04T11:12:13;5.57;;;2.17;;
18142;SDS011;9197;50.930;3.140;2023-03-04T11:14:44;4.63;;;1.60;;
18142;SDS011;9197;50.930;3.140;2023-03-04T11:17:20;4.43;;;2.60;;
18142;SDS011;9197;50.930;3.140;2023-03-04T11:19:50;6.50;;;4.37;;
18142;SDS011;9197;50.930;3.140;2023-03-04T11:22:19;5.43;;;2.13;;
18142;SDS011;9197;50.930;3.140;2023-03-04T11:24:48;5.07;;;2.20;;
18142;SDS011;9197;50.930;3.140;2023-03-04T11:27:20;4.23;;;1.60;;
18142;SDS011;9197;50.930;3.140;2023-03-04T11:29:51;4.07;;;1.50;;
18142;SDS011;9197;50.930;3.140;2023-03-04T11:32:21;5.27;;;2.03;;
18142;SDS011;9197;50.930;3.140;2023-03-04T11:34:50;5.97;;;2.50;;
18142;SDS011;9197;50.930;3.140;2023-03-04T11:37:21;4.00;;;1.83;;
18142;SDS011;9197;50.930;3.140;2023-03-04T11:39:50;5.43;;;1.90;;
18142;SDS011;9197;50.930;3.140;2023-03-04T11:42:20;7.67;;;2.10;;
18142;SDS011;9197;50.930;3.140;2023-03-04T11:44:52;3.57;;;1.57;;
18142;SDS011;9197;50.930;3.140;2023-03-04T11:47:26;4.67;;;1.20;;
18142;SDS011;9197;50.930;3.140;2023-03-04T11:50:08;2.87;;;1.20;;
18142;SDS011;9197;50.930;3.140;2023-03-04T11:52:43;3.40;;;1.50;;
18142;SDS011;9197;50.930;3.140;2023-03-04T11:55:20;3.13;;;1.13;;
18142;SDS011;9197;50.930;3.140;2023-03-04T11:57:55;4.03;;;1.43;;
18142;SDS011;9197;50.930;3.140;2023-03-04T12:00:30;4.00;;;0.83;;
18142;SDS011;9197;50.930;3.140;2023-03-04T12:03:12;4.83;;;1.93;;
18142;SDS011;9197;50.930;3.140;2023-03-04T12:05:42;7.47;;;4.53;;
18142;SDS011;9197;50.930;3.140;2023-03-04T12:11:07;4.97;;;3.87;;
18142;SDS011;9197;50.930;3.140;2023-03-04T12:13:47;2.53;;;1.53;;
18142;SDS011;9197;50.930;3.140;2023-03-04T12:16:20;2.17;;;1.37;;
18142;SDS011;9197;50.930;3.140;2023-03-04T12:18:55;1.60;;;0.80;;
18142;SDS011;9197;50.930;3.140;2023-03-04T12:21:28;3.13;;;1.27;;
18142;SDS011;9197;50.930;3.140;2023-03-04T12:26:46;3.27;;;3.00;;
18142;SDS011;9197;50.930;3.140;2023-03-04T12:29:18;3.13;;;0.90;;
18142;SDS011;9197;50.930;3.140;2023-03-04T12:31:52;5.10;;;2.50;;
18142;SDS011;9197;50.930;3.140;2023-03-04T12:34:30;2.43;;;0.77;;
18142;SDS011;9197;50.930;3.140;2023-03-04T12:37:11;1.13;;;0.90;;
18142;SDS011;9197;50.930;3.140;2023-03-04T12:39:46;2.63;;;0.90;;
18142;SDS011;9197;50.930;3.140;2023-03-04T12:42:17;3.90;;;1.63;;
18142;SDS011;9197;50.930;3.140;2023-03-04T12:44:52;2.47;;;0.80;;
18142;SDS011;9197;50.930;3.140;2023-03-04T12:47:27;2.23;;;0.77;;
18142;SDS011;9197;50.930;3.140;2023-03-04T12:49:58;5.03;;;1.20;;
18142;SDS011;9197;50.930;3.140;2023-03-04T12:52:30;1.80;;;1.20;;
18142;SDS011;9197;50.930;3.140;2023-03-04T12:55:01;3.20;;;1.73;;
18142;SDS011;9197;50.930;3.140;2023-03-04T12:57:29;2.63;;;1.90;;
18142;SDS011;9197;50.930;3.140;2023-03-04T12:59:58;3.00;;;2.33;;
18142;SDS011;9197;50.930;3.140;2023-03-04T13:02:41;7.10;;;1.27;;
18142;SDS011;9197;50.930;3.140;2023-03-04T13:05:16;2.87;;;2.57;;
18142;SDS011;9197;50.930;3.140;2023-03-04T13:07:47;1.33;;;1.13;;
18142;SDS011;9197;50.930;3.140;2023-03-04T13:10:18;4.70;;;3.00;;
18142;SDS011;9197;50.930;3.140;2023-03-04T13:12:48;3.07;;;2.50;;
18142;SDS011;9197;50.930;3.140;2023-03-04T13:18:00;3.23;;;0.70;;
18142;SDS011;9197;50.930;3.140;2023-03-04T13:20:33;1.90;;;1.10;;
18142;SDS011;9197;50.930;3.140;2023-03-04T13:23:03;0.70;;;0.60;;
18142;SDS011;9197;50.930;3.140;2023-03-04T13:25:37;2.20;;;0.80;;
18142;SDS011;9197;50.930;3.140;2023-03-04T13:31:10;1.03;;;0.73;;
18142;SDS011;9197;50.930;3.140;2023-03-04T13:33:58;5.73;;;3.33;;
18142;SDS011;9197;50.930;3.140;2023-03-04T13:39:32;0.90;;;0.90;;
18142;SDS011;9197;50.930;3.140;2023-03-04T13:42:00;1.57;;;0.90;;
18142;SDS011;9197;50.930;3.140;2023-03-04T13:47:16;0.43;;;0.43;;
18142;SDS011;9197;50.930;3.140;2023-03-04T13:49:45;0.60;;;0.50;;
18142;SDS011;9197;50.930;3.140;2023-03-04T13:57:46;0.80;;;0.80;;
18142;SDS011;9197;50.930;3.140;2023-03-04T14:00:14;0.90;;;0.90;;
18142;SDS011;9197;50.930;3.140;2023-03-04T14:02:41;0.93;;;0.83;;
18142;SDS011;9197;50.930;3.140;2023-03-04T14:05:10;1.37;;;1.10;;
18142;SDS011;9197;50.930;3.140;2023-03-04T14:07:38;2.30;;;1.03;;
18142;SDS011;9197;50.930;3.140;2023-03-04T14:10:06;2.87;;;1.33;;
18142;SDS011;9197;50.930;3.140;2023-03-04T14:12:34;2.87;;;1.87;;
18142;SDS011;9197;50.930;3.140;2023-03-04T14:15:03;3.50;;;1.80;;
18142;SDS011;9197;50.930;3.140;2023-03-04T14:17:31;4.47;;;1.17;;
18142;SDS011;9197;50.930;3.140;2023-03-04T14:20:01;1.83;;;1.40;;
18142;SDS011;9197;50.930;3.140;2023-03-04T14:22:31;1.27;;;1.13;;
18142;SDS011;9197;50.930;3.140;2023-03-04T14:24:59;1.50;;;1.33;;
18142;SDS011;9197;50.930;3.140;2023-03-04T14:27:27;1.50;;;1.40;;
18142;SDS011;9197;50.930;3.140;2023-03-04T14:29:55;1.33;;;1.00;;
18142;SDS011;9197;50.930;3.140;2023-03-04T14:32:22;1.13;;;0.90;;
18142;SDS011;9197;50.930;3.140;2023-03-04T14:34:50;4.40;;;1.67;;
18142;SDS011;9197;50.930;3.140;2023-03-04T14:37:18;0.83;;;0.60;;
18142;SDS011;9197;50.930;3.140;2023-03-04T14:39:47;0.90;;;0.90;;
18142;SDS011;9197;50.930;3.140;2023-03-04T14:42:16;2.03;;;0.90;;
18142;SDS011;9197;50.930;3.140;2023-03-04T14:44:46;0.80;;;0.80;;
18142;SDS011;9197;50.930;3.140;2023-03-04T14:47:15;0.80;;;0.80;;
18142;SDS011;9197;50.930;3.140;2023-03-04T14:49:44;4.10;;;1.93;;
18142;SDS011;9197;50.930;3.140;2023-03-04T14:52:31;1.70;;;1.43;;
18142;SDS011;9197;50.930;3.140;2023-03-04T14:55:01;2.87;;;2.33;;
18142;SDS011;9197;50.930;3.140;2023-03-04T14:57:30;5.00;;;2.30;;
18142;SDS011;9197;50.930;3.140;2023-03-04T15:00:13;3.83;;;2.60;;
18142;SDS011;9197;50.930;3.140;2023-03-04T15:02:40;4.63;;;2.10;;
18142;SDS011;9197;50.930;3.140;2023-03-04T15:05:08;4.30;;;2.87;;
18142;SDS011;9197;50.930;3.140;2023-03-04T15:07:36;3.53;;;2.10;;
18142;SDS011;9197;50.930;3.140;2023-03-04T15:10:06;4.50;;;2.80;;
18142;SDS011;9197;50.930;3.140;2023-03-04T15:12:34;2.43;;;1.53;;
18142;SDS011;9197;50.930;3.140;2023-03-04T15:15:03;4.53;;;3.20;;
18142;SDS011;9197;50.930;3.140;2023-03-04T15:17:35;3.80;;;2.40;;
18142;SDS011;9197;50.930;3.140;2023-03-04T15:20:23;3.57;;;2.00;;
18142;SDS011;9197;50.930;3.140;2023-03-04T15:22:58;2.17;;;1.60;;
18142;SDS011;9197;50.930;3.140;2023-03-04T15:25:27;1.70;;;1.60;;
18142;SDS011;9197;50.930;3.140;2023-03-04T15:27:55;2.70;;;1.63;;
18142;SDS011;9197;50.930;3.140;2023-03-04T15:30:24;3.47;;;2.30;;
18142;SDS011;9197;50.930;3.140;2023-03-04T15:32:54;1.87;;;1.37;;